createdAt,value
2018-09-21T00:02:06.913Z,7.30
2018-09-21T00:04:35.322Z,6.07
2018-09-21T00:07:03.805Z,6.50
2018-09-21T00:09:32.233Z,7.10
2018-09-21T00:12:00.697Z,6.63
2018-09-21T00:14:29.237Z,6.13
2018-09-21T00:16:57.687Z,6.60
2018-09-21T00:19:26.319Z,6.33
2018-09-21T00:21:54.806Z,6.63
2018-09-21T00:24:23.321Z,6.40
2018-09-21T00:26:52.691Z,6.23
2018-09-21T00:29:21.232Z,6.63
2018-09-21T00:31:49.774Z,6.70
2018-09-21T00:34:18.238Z,6.47
2018-09-21T00:36:46.756Z,7.30
2018-09-21T00:39:15.169Z,6.73
2018-09-21T00:41:43.617Z,6.90
2018-09-21T00:44:12.069Z,7.00
2018-09-21T00:46:40.531Z,7.37
2018-09-21T00:49:09.017Z,7.93
2018-09-21T00:51:37.503Z,6.63
2018-09-21T00:54:06.249Z,6.70
2018-09-21T00:56:34.778Z,6.80
2018-09-21T00:59:03.221Z,6.30
2018-09-21T01:01:32.134Z,7.10
2018-09-21T01:04:00.517Z,7.87
2018-09-21T01:06:29.003Z,7.00
2018-09-21T01:08:57.460Z,7.13
2018-09-21T01:11:25.907Z,6.57
2018-09-21T01:13:54.375Z,6.47
2018-09-21T01:16:22.963Z,6.80
2018-09-21T01:18:51.441Z,6.80
2018-09-21T01:21:19.892Z,6.27
2018-09-21T01:23:48.284Z,6.80
2018-09-21T01:26:16.701Z,7.93
2018-09-21T01:28:45.385Z,6.93
2018-09-21T01:31:14.072Z,7.17
2018-09-21T01:33:42.460Z,7.20
2018-09-21T01:36:11.005Z,7.67
2018-09-21T01:38:39.452Z,6.77
2018-09-21T01:41:07.857Z,6.77
2018-09-21T01:43:36.311Z,7.53
2018-09-21T01:46:05.050Z,8.20
2018-09-21T01:48:33.976Z,6.87
2018-09-21T01:51:02.685Z,6.50
2018-09-21T01:53:31.419Z,7.20
2018-09-21T01:55:59.884Z,6.80
2018-09-21T01:58:28.478Z,7.03
2018-09-21T02:00:57.001Z,6.93
2018-09-21T02:03:25.460Z,7.23
2018-09-21T02:05:54.193Z,7.33
2018-09-21T02:08:23.090Z,7.37
2018-09-21T02:10:51.770Z,6.73
2018-09-21T02:13:20.233Z,7.97
2018-09-21T02:15:48.909Z,6.70
2018-09-21T02:18:17.421Z,6.70
2018-09-21T02:20:45.862Z,7.50
2018-09-21T02:23:14.382Z,7.07
2018-09-21T02:25:42.788Z,6.77
2018-09-21T02:28:11.222Z,7.40
2018-09-21T02:30:39.681Z,7.00
2018-09-21T02:33:08.141Z,7.53
2018-09-21T02:35:36.556Z,6.53
2018-09-21T02:38:05.094Z,7.00
2018-09-21T02:40:33.493Z,7.90
2018-09-21T02:43:01.997Z,6.93
2018-09-21T02:45:30.562Z,6.80
2018-09-21T02:47:59.008Z,6.73
2018-09-21T02:50:27.485Z,6.57
2018-09-21T02:52:56.069Z,7.57
2018-09-21T02:55:24.592Z,7.97
2018-09-21T02:57:53.165Z,6.60
2018-09-21T03:00:21.672Z,7.50
2018-09-21T03:02:49.987Z,6.33
2018-09-21T03:05:18.502Z,7.27
2018-09-21T03:07:46.946Z,6.83
2018-09-21T03:10:16.105Z,6.87
2018-09-21T03:12:44.536Z,7.20
2018-09-21T03:15:13.043Z,7.10
2018-09-21T03:17:41.550Z,7.33
2018-09-21T03:20:09.994Z,7.07
2018-09-21T03:22:38.415Z,6.63
2018-09-21T03:25:06.877Z,7.23
2018-09-21T03:27:35.414Z,6.60
2018-09-21T03:30:03.963Z,7.63
2018-09-21T03:32:32.388Z,7.17
2018-09-21T03:35:00.799Z,7.80
2018-09-21T03:37:29.190Z,8.20
2018-09-21T03:39:58.710Z,6.60
2018-09-21T03:42:27.218Z,7.47
2018-09-21T03:44:55.689Z,6.93
2018-09-21T03:47:24.280Z,7.10
2018-09-21T03:49:52.821Z,6.40
2018-09-21T03:52:21.283Z,7.43
2018-09-21T03:54:49.684Z,7.43
2018-09-21T03:57:18.122Z,6.87
2018-09-21T03:59:46.586Z,7.17
2018-09-21T04:02:15.062Z,7.20
2018-09-21T04:04:43.496Z,7.50
2018-09-21T04:07:12.372Z,6.37
2018-09-21T04:09:40.788Z,7.20
2018-09-21T04:12:09.245Z,7.07
2018-09-21T04:14:37.636Z,7.57
2018-09-21T04:17:06.435Z,7.10
2018-09-21T04:19:34.950Z,7.37
2018-09-21T04:22:03.421Z,7.10
2018-09-21T04:24:31.824Z,7.17
2018-09-21T04:27:00.349Z,7.00
2018-09-21T04:29:29.094Z,7.23
2018-09-21T04:31:57.547Z,6.93
2018-09-21T04:34:25.975Z,6.77
2018-09-21T04:36:54.410Z,7.43
2018-09-21T04:39:23.039Z,7.63
2018-09-21T04:41:51.615Z,8.57
2018-09-21T04:44:20.029Z,8.53
2018-09-21T04:46:48.522Z,7.70
2018-09-21T04:49:16.960Z,7.20
2018-09-21T04:51:45.368Z,8.47
2018-09-21T04:54:13.845Z,6.93
2018-09-21T04:56:42.300Z,6.90
2018-09-21T04:59:10.759Z,7.53
2018-09-21T05:01:39.168Z,7.20
2018-09-21T05:04:07.681Z,9.47
2018-09-21T05:06:36.117Z,8.30
2018-09-21T05:09:06.285Z,8.23
2018-09-21T05:11:34.717Z,7.77
2018-09-21T05:14:03.218Z,8.30
2018-09-21T05:16:31.706Z,7.50
2018-09-21T05:19:00.221Z,7.97
2018-09-21T05:21:28.625Z,8.17
2018-09-21T05:23:57.106Z,8.10
2018-09-21T05:26:25.609Z,8.40
2018-09-21T05:28:54.177Z,7.53
2018-09-21T05:31:22.741Z,8.03
2018-09-21T05:33:51.327Z,8.10
2018-09-21T05:36:21.429Z,8.70
2018-09-21T05:38:49.910Z,9.17
2018-09-21T05:41:18.435Z,8.07
2018-09-21T05:43:46.916Z,8.50
2018-09-21T05:46:15.396Z,7.20
2018-09-21T05:48:43.883Z,8.33
2018-09-21T05:51:12.329Z,25.27
2018-09-21T05:53:40.733Z,8.97
2018-09-21T05:56:09.188Z,9.10
2018-09-21T05:58:37.596Z,8.67
2018-09-21T06:01:06.124Z,8.90
2018-09-21T06:03:34.502Z,8.70
2018-09-21T06:06:02.964Z,9.47
2018-09-21T06:08:31.397Z,8.60
2018-09-21T06:10:59.880Z,10.67
2018-09-21T06:13:29.103Z,9.97
2018-09-21T06:15:57.676Z,8.67
2018-09-21T06:18:26.292Z,8.97
2018-09-21T06:20:54.761Z,9.43
2018-09-21T06:23:23.223Z,9.27
2018-09-21T06:25:51.983Z,9.40
2018-09-21T06:28:20.617Z,9.40
2018-09-21T06:30:49.146Z,8.50
2018-09-21T06:33:17.601Z,9.67
2018-09-21T06:35:46.057Z,9.97
2018-09-21T06:38:14.482Z,9.97
2018-09-21T06:40:42.944Z,9.70
2018-09-21T06:43:11.365Z,8.83
2018-09-21T06:45:39.891Z,8.33
2018-09-21T06:48:08.286Z,9.83
2018-09-21T06:50:36.719Z,9.70
2018-09-21T06:53:05.888Z,10.23
2018-09-21T06:55:34.266Z,10.60
2018-09-21T06:58:02.721Z,9.30
2018-09-21T07:00:31.243Z,8.83
2018-09-21T07:02:59.719Z,9.77
2018-09-21T07:05:28.227Z,10.00
2018-09-21T07:07:56.750Z,9.33
2018-09-21T07:10:25.217Z,10.60
2018-09-21T07:12:53.849Z,10.47
2018-09-21T07:15:22.479Z,9.57
2018-09-21T07:17:50.968Z,9.97
2018-09-21T07:20:19.348Z,9.43
2018-09-21T07:22:47.780Z,9.00
2018-09-21T07:25:16.145Z,9.50
2018-09-21T07:27:44.563Z,9.30
2018-09-21T07:30:12.947Z,9.10
2018-09-21T07:32:41.393Z,10.10
2018-09-21T07:35:09.767Z,9.73
2018-09-21T07:37:39.292Z,12.80
2018-09-21T07:40:07.646Z,12.63
2018-09-21T07:42:36.773Z,13.27
2018-09-21T07:45:05.163Z,11.77
2018-09-21T07:47:33.599Z,11.27
2018-09-21T07:50:02.028Z,12.03
2018-09-21T07:52:30.503Z,11.40
2018-09-21T07:54:58.996Z,12.50
2018-09-21T07:57:28.238Z,10.93
2018-09-21T07:59:56.856Z,12.37
2018-09-21T08:02:25.287Z,14.97
2018-09-21T08:04:54.211Z,12.20
2018-09-21T08:07:22.717Z,10.73
2018-09-21T08:09:51.101Z,10.70
2018-09-21T08:12:19.651Z,11.13
2018-09-21T08:14:48.084Z,10.97
2018-09-21T08:17:16.525Z,10.57
2018-09-21T08:19:44.930Z,9.30
2018-09-21T08:22:13.741Z,9.60
2018-09-21T08:24:42.116Z,10.77
2018-09-21T08:27:12.353Z,10.77
2018-09-21T08:29:40.858Z,10.40
2018-09-21T08:32:09.288Z,10.53
2018-09-21T08:34:37.717Z,10.90
2018-09-21T08:37:06.275Z,11.70
2018-09-21T08:39:34.680Z,9.43
2018-09-21T08:42:03.104Z,10.07
2018-09-21T08:44:31.508Z,9.80
2018-09-21T08:46:59.895Z,9.53
2018-09-21T08:49:28.493Z,10.47
2018-09-21T08:51:57.344Z,9.50
2018-09-21T08:54:26.084Z,10.00
2018-09-21T08:56:54.576Z,9.40
2018-09-21T08:59:23.187Z,9.80
2018-09-21T09:01:51.749Z,9.13
2018-09-21T09:04:20.159Z,8.83
2018-09-21T09:06:48.540Z,9.67
2018-09-21T09:09:17.153Z,10.20
2018-09-21T09:11:45.589Z,9.93
2018-09-21T09:14:14.352Z,9.73
2018-09-21T09:16:42.773Z,9.00
2018-09-21T09:19:11.125Z,8.87
2018-09-21T09:21:39.546Z,10.00
2018-09-21T09:24:08.077Z,9.37
2018-09-21T09:26:36.477Z,9.03
2018-09-21T09:29:04.845Z,8.37
2018-09-21T09:31:33.698Z,8.33
2018-09-21T09:34:02.108Z,8.70
2018-09-21T09:36:30.529Z,9.97
2018-09-21T09:38:59.233Z,9.00
2018-09-21T09:41:27.653Z,9.50
2018-09-21T09:43:56.198Z,9.87
2018-09-21T09:46:24.869Z,8.80
2018-09-21T09:48:53.442Z,8.40
2018-09-21T09:51:21.806Z,9.10
2018-09-21T09:53:50.250Z,9.40
2018-09-21T09:56:18.684Z,8.70
2018-09-21T09:58:47.158Z,9.63
2018-09-21T10:01:15.515Z,9.03
2018-09-21T10:03:44.017Z,7.63
2018-09-21T10:06:12.334Z,7.30
2018-09-21T10:08:40.698Z,7.60
2018-09-21T10:11:09.081Z,7.60
2018-09-21T10:13:37.450Z,8.40
2018-09-21T10:16:05.868Z,6.47
2018-09-21T10:18:34.256Z,7.00
2018-09-21T10:21:02.692Z,6.77
2018-09-21T10:23:31.115Z,6.17
2018-09-21T10:25:59.504Z,5.50
2018-09-21T10:28:28.172Z,7.37
2018-09-21T10:30:56.502Z,11.37
2018-09-21T10:33:25.048Z,6.60
2018-09-21T10:35:53.505Z,5.43
2018-09-21T10:38:21.944Z,4.63
2018-09-21T10:40:50.431Z,4.47
2018-09-21T10:43:18.846Z,4.20
2018-09-21T10:45:47.288Z,3.37
2018-09-21T10:48:15.697Z,3.50
2018-09-21T10:50:44.113Z,3.27
2018-09-21T10:53:12.520Z,3.10
2018-09-21T10:55:40.892Z,3.20
2018-09-21T10:58:09.272Z,3.23
2018-09-21T11:00:37.726Z,2.70
2018-09-21T11:03:06.173Z,2.80
2018-09-21T11:05:34.662Z,3.20
2018-09-21T11:08:03.090Z,2.80
2018-09-21T11:10:31.492Z,2.80
2018-09-21T11:12:59.926Z,2.77
2018-09-21T11:15:28.312Z,2.90
2018-09-21T11:17:56.722Z,2.60
2018-09-21T11:20:25.174Z,2.97
2018-09-21T11:22:53.619Z,2.63
2018-09-21T11:25:22.002Z,2.27
2018-09-21T11:27:50.375Z,2.87
2018-09-21T11:30:18.780Z,3.00
2018-09-21T11:32:47.216Z,2.70
2018-09-21T11:35:16.197Z,2.50
2018-09-21T11:37:44.546Z,2.83
2018-09-21T11:40:12.953Z,2.50
2018-09-21T11:42:41.505Z,2.63
2018-09-21T11:45:09.866Z,2.43
2018-09-21T11:47:38.315Z,2.53
2018-09-21T11:50:06.719Z,2.40
2018-09-21T11:52:35.113Z,2.93
2018-09-21T11:55:03.451Z,2.47
2018-09-21T11:57:31.859Z,2.43
2018-09-21T12:00:00.216Z,2.13
2018-09-21T12:02:28.728Z,5.30
2018-09-21T12:04:57.204Z,2.60
2018-09-21T12:07:25.576Z,2.27
2018-09-21T12:09:54.095Z,2.53
2018-09-21T12:12:22.504Z,2.30
2018-09-21T12:14:50.941Z,2.70
2018-09-21T12:17:19.349Z,2.63
2018-09-21T12:19:47.845Z,2.20
2018-09-21T12:22:16.319Z,2.50
2018-09-21T12:24:44.725Z,2.37
2018-09-21T12:27:13.109Z,2.10
2018-09-21T12:29:42.010Z,3.23
2018-09-21T12:32:10.850Z,2.90
2018-09-21T12:34:39.725Z,2.33
2018-09-21T12:37:08.659Z,2.03
2018-09-21T12:39:37.560Z,2.30
2018-09-21T12:42:06.527Z,2.47
2018-09-21T12:44:35.455Z,2.13
2018-09-21T12:47:03.842Z,1.40
2018-09-21T12:49:33.801Z,1.33
2018-09-21T12:52:02.269Z,0.80
2018-09-21T12:54:31.145Z,1.10
2018-09-21T12:56:59.579Z,0.90
2018-09-21T12:59:30.000Z,1.10
2018-09-21T13:01:59.484Z,1.03
2018-09-21T13:04:27.920Z,0.97
2018-09-21T13:06:56.370Z,0.80
2018-09-21T13:09:24.816Z,0.97
2018-09-21T13:11:53.296Z,0.80
2018-09-21T13:14:21.865Z,1.00
2018-09-21T13:16:50.272Z,0.80
2018-09-21T13:19:18.754Z,0.93
2018-09-21T13:21:47.233Z,1.03
2018-09-21T13:24:15.657Z,1.00
2018-09-21T13:26:44.149Z,1.00
2018-09-21T13:29:12.849Z,0.90
2018-09-21T13:31:41.263Z,1.20
2018-09-21T13:37:19.171Z,0.90
2018-09-21T13:39:53.168Z,1.00
2018-09-21T13:42:22.036Z,1.20
2018-09-21T13:44:53.136Z,1.63
2018-09-21T13:47:21.773Z,1.30
2018-09-21T13:50:03.265Z,2.80
2018-09-21T13:52:42.719Z,1.50
2018-09-21T13:55:11.219Z,1.60
2018-09-21T13:57:47.426Z,1.40
2018-09-21T14:00:18.318Z,1.17
2018-09-21T14:03:02.905Z,1.60
2018-09-21T14:05:40.036Z,1.73
2018-09-21T14:10:47.906Z,1.70
2018-09-21T14:13:16.320Z,1.40
2018-09-21T14:15:44.688Z,1.50
2018-09-21T14:18:13.187Z,1.70
2018-09-21T14:20:42.100Z,1.53
2018-09-21T14:23:10.557Z,1.67
2018-09-21T14:25:38.985Z,1.20
2018-09-21T14:28:07.420Z,1.70
2018-09-21T14:30:35.892Z,1.97
2018-09-21T14:33:04.311Z,2.33
2018-09-21T14:35:32.773Z,1.63
2018-09-21T14:38:01.371Z,1.67
2018-09-21T14:40:29.889Z,1.80
2018-09-21T14:42:58.334Z,3.43
2018-09-21T14:45:26.857Z,2.37
2018-09-21T14:47:55.361Z,1.50
2018-09-21T14:50:23.924Z,1.30
2018-09-21T14:52:52.537Z,1.90
2018-09-21T14:55:21.879Z,1.97
2018-09-21T14:57:50.309Z,1.73
2018-09-21T15:00:18.874Z,1.83
2018-09-21T15:02:47.251Z,1.90
2018-09-21T15:05:15.835Z,1.60
2018-09-21T15:07:44.239Z,1.43
2018-09-21T15:10:12.674Z,1.80
2018-09-21T15:12:41.242Z,2.00
2018-09-21T15:15:09.680Z,1.77
2018-09-21T15:17:38.118Z,1.97
2018-09-21T15:20:06.621Z,3.23
2018-09-21T15:22:35.699Z,1.83
2018-09-21T15:25:04.307Z,1.50
2018-09-21T15:27:32.669Z,2.00
2018-09-21T15:30:01.413Z,1.60
2018-09-21T15:32:29.813Z,1.83
2018-09-21T15:34:58.191Z,1.60
2018-09-21T15:37:26.678Z,3.70
2018-09-21T15:39:55.188Z,1.70
2018-09-21T15:42:23.867Z,1.60
2018-09-21T15:44:52.721Z,2.20
2018-09-21T15:47:21.729Z,1.97
2018-09-21T15:49:50.435Z,2.00
2018-09-21T15:52:18.899Z,1.40
2018-09-21T15:54:47.304Z,2.10
2018-09-21T15:57:15.781Z,2.30
2018-09-21T15:59:44.280Z,2.00
2018-09-21T16:02:19.213Z,2.07
2018-09-21T16:04:47.582Z,1.40
2018-09-21T16:07:16.000Z,1.70
2018-09-21T16:09:44.373Z,2.07
2018-09-21T16:12:12.849Z,1.83
2018-09-21T16:14:41.272Z,1.87
2018-09-21T16:17:09.786Z,1.90
2018-09-21T16:19:38.189Z,2.10
2018-09-21T16:22:06.908Z,1.67
2018-09-21T16:24:35.385Z,2.20
2018-09-21T16:27:03.910Z,1.70
2018-09-21T16:29:32.370Z,2.20
2018-09-21T16:32:01.240Z,1.63
2018-09-21T16:34:29.824Z,1.60
2018-09-21T16:36:58.468Z,1.60
2018-09-21T16:39:27.069Z,2.00
2018-09-21T16:41:55.729Z,1.40
2018-09-21T16:44:24.239Z,1.33
2018-09-21T16:46:52.794Z,1.40
2018-09-21T16:49:21.250Z,1.50
2018-09-21T16:51:49.992Z,1.30
2018-09-21T16:54:18.392Z,1.50
2018-09-21T16:56:46.857Z,1.40
2018-09-21T16:59:16.223Z,1.67
2018-09-21T17:01:44.718Z,1.80
2018-09-21T17:04:13.210Z,1.20
2018-09-21T17:06:41.589Z,1.20
2018-09-21T17:09:11.510Z,1.30
2018-09-21T17:11:39.937Z,1.47
2018-09-21T17:14:08.337Z,1.43
2018-09-21T17:16:36.800Z,1.43
2018-09-21T17:19:05.221Z,1.77
2018-09-21T17:21:33.692Z,2.83
2018-09-21T17:24:02.116Z,3.20
2018-09-21T17:26:30.637Z,1.87
2018-09-21T17:28:59.113Z,1.27
2018-09-21T17:31:27.672Z,1.80
2018-09-21T17:33:56.271Z,4.73
2018-09-21T17:36:25.024Z,7.13
2018-09-21T17:38:53.487Z,4.33
2018-09-21T17:41:22.114Z,8.67
2018-09-21T17:43:57.162Z,2.90
2018-09-21T17:46:25.690Z,5.10
2018-09-21T17:48:54.239Z,1.33
2018-09-21T17:51:22.885Z,3.20
2018-09-21T17:53:51.473Z,2.10
2018-09-21T17:56:19.903Z,1.20
2018-09-21T17:58:48.284Z,2.07
2018-09-21T18:01:16.670Z,1.50
2018-09-21T18:03:45.033Z,2.40
2018-09-21T18:06:13.500Z,2.30
2018-09-21T18:08:41.872Z,1.60
2018-09-21T18:11:10.280Z,1.10
2018-09-21T18:13:38.701Z,1.37
2018-09-21T18:16:07.175Z,1.37
2018-09-21T18:18:36.042Z,1.37
2018-09-21T18:21:04.993Z,1.40
2018-09-21T18:23:34.504Z,1.43
2018-09-21T18:26:03.922Z,1.47
2018-09-21T18:28:33.065Z,1.60
2018-09-21T18:31:02.412Z,2.10
2018-09-21T18:33:31.287Z,1.20
2018-09-21T18:36:00.047Z,1.83
2018-09-21T18:38:29.116Z,1.50
2018-09-21T18:40:58.112Z,2.20
2018-09-21T18:43:27.127Z,1.63
2018-09-21T18:45:56.170Z,1.30
2018-09-21T18:48:26.494Z,2.10
2018-09-21T18:50:55.758Z,1.90
2018-09-21T18:53:25.232Z,1.50
2018-09-21T18:55:54.178Z,1.77
2018-09-21T18:58:23.275Z,2.90
2018-09-21T19:00:53.221Z,3.80
2018-09-21T19:03:21.957Z,3.73
2018-09-21T19:05:51.096Z,3.80
2018-09-21T19:08:19.942Z,4.23
2018-09-21T19:10:48.669Z,5.57
2018-09-21T19:13:17.079Z,3.97
2018-09-21T19:15:45.635Z,3.90
2018-09-21T19:18:14.320Z,2.10
2018-09-21T19:20:42.745Z,2.10
2018-09-21T19:23:11.839Z,2.60
2018-09-21T19:25:40.528Z,2.60
2018-09-21T19:28:09.167Z,1.97
2018-09-21T19:30:38.329Z,5.20
2018-09-21T19:33:06.888Z,3.00
2018-09-21T19:35:35.409Z,2.00
2018-09-21T19:38:03.921Z,2.57
2018-09-21T19:40:32.381Z,2.73
2018-09-21T19:43:00.862Z,2.17
2018-09-21T19:45:29.474Z,1.93
2018-09-21T19:47:58.001Z,3.40
2018-09-21T19:50:26.662Z,3.20
2018-09-21T19:52:55.219Z,2.30
2018-09-21T19:55:24.702Z,1.80
2018-09-21T19:57:53.228Z,1.93
2018-09-21T20:00:22.125Z,1.60
2018-09-21T20:02:50.919Z,1.87
2018-09-21T20:05:19.592Z,1.90
2018-09-21T20:07:48.328Z,1.90
2018-09-21T20:10:16.733Z,1.50
2018-09-21T20:12:45.157Z,1.60
2018-09-21T20:15:13.886Z,1.57
2018-09-21T20:17:42.412Z,1.50
2018-09-21T20:20:11.004Z,1.70
2018-09-21T20:22:41.089Z,2.13
2018-09-21T20:25:09.572Z,1.50
2018-09-21T20:27:37.948Z,1.20
2018-09-21T20:30:11.874Z,1.80
2018-09-21T20:32:45.767Z,1.20
2018-09-21T20:35:14.167Z,1.43
2018-09-21T20:37:42.552Z,1.50
2018-09-21T20:40:11.008Z,1.63
2018-09-21T20:42:39.492Z,2.10
2018-09-21T20:45:07.945Z,1.63
2018-09-21T20:47:36.723Z,1.43
2018-09-21T20:50:05.828Z,2.10
2018-09-21T20:52:35.364Z,1.70
2018-09-21T20:55:04.289Z,1.80
2018-09-21T20:57:32.757Z,1.50
2018-09-21T21:00:01.192Z,1.63
2018-09-21T21:02:29.617Z,1.37
2018-09-21T21:04:58.118Z,2.60
2018-09-21T21:07:27.624Z,2.00
2018-09-21T21:09:56.081Z,1.10
2018-09-21T21:12:24.722Z,1.63
2018-09-21T21:14:53.238Z,2.13
2018-09-21T21:17:21.723Z,1.60
2018-09-21T21:19:50.279Z,1.60
2018-09-21T21:22:18.822Z,1.57
2018-09-21T21:24:47.233Z,1.33
2018-09-21T21:27:15.680Z,1.30
2018-09-21T21:29:44.049Z,1.97
2018-09-21T21:32:12.534Z,2.27
2018-09-21T21:34:41.020Z,1.50
2018-09-21T21:37:09.445Z,1.30
2018-09-21T21:39:37.883Z,1.50
2018-09-21T21:42:06.371Z,1.80
2018-09-21T21:44:34.988Z,1.20
2018-09-21T21:47:03.481Z,1.60
2018-09-21T21:49:31.976Z,1.30
2018-09-21T21:52:00.425Z,1.80
2018-09-21T21:54:28.865Z,1.47
2018-09-21T21:56:57.327Z,1.57
2018-09-21T21:59:25.817Z,2.07
2018-09-21T22:01:57.521Z,1.67
2018-09-21T22:04:27.346Z,2.47
2018-09-21T22:06:56.145Z,1.27
2018-09-21T22:09:26.744Z,1.20
2018-09-21T22:12:00.596Z,1.37
2018-09-21T22:14:29.372Z,1.40
2018-09-21T22:16:57.949Z,1.60
2018-09-21T22:19:26.449Z,1.50
2018-09-21T22:21:55.206Z,1.20
2018-09-21T22:24:24.583Z,1.50
2018-09-21T22:26:53.154Z,1.10
2018-09-21T22:29:22.162Z,1.50
2018-09-21T22:31:50.737Z,1.40
2018-09-21T22:34:19.174Z,1.30
2018-09-21T22:36:47.614Z,1.03
2018-09-21T22:39:16.068Z,1.30
2018-09-21T22:41:44.444Z,1.23
2018-09-21T22:44:12.839Z,0.97
2018-09-21T22:46:41.287Z,1.40
2018-09-21T22:49:13.873Z,1.10
2018-09-21T22:51:42.303Z,2.00
2018-09-21T22:54:10.750Z,1.47
2018-09-21T22:56:39.172Z,1.60
2018-09-21T22:59:07.656Z,1.10
2018-09-21T23:01:36.193Z,1.07
2018-09-21T23:04:04.611Z,1.43
2018-09-21T23:06:33.097Z,1.13
2018-09-21T23:09:01.517Z,1.50
2018-09-21T23:11:29.917Z,0.80
2018-09-21T23:13:58.343Z,1.40
2018-09-21T23:16:26.778Z,1.40
2018-09-21T23:18:55.204Z,1.13
2018-09-21T23:21:23.786Z,1.30
2018-09-21T23:23:52.267Z,1.47
2018-09-21T23:26:20.791Z,1.40
2018-09-21T23:28:49.226Z,1.60
2018-09-21T23:31:17.647Z,0.93
2018-09-21T23:33:46.150Z,1.50
2018-09-21T23:36:14.529Z,1.40
2018-09-21T23:38:43.000Z,1.37
2018-09-21T23:41:11.468Z,1.07
2018-09-21T23:43:39.945Z,1.90
2018-09-21T23:46:08.360Z,1.53
2018-09-21T23:48:37.195Z,1.50
2018-09-21T23:51:06.521Z,1.77
2018-09-21T23:53:34.994Z,1.70
2018-09-21T23:56:03.452Z,1.30
2018-09-21T23:58:31.888Z,1.33
